Time;durP1;ratioP1;P1;durP2;ratioP2;P2;SDS_P1;SDS_P2;PMS_P1;PMS_P2;Temp;Humidity;BMP_temperature;BMP_pressure;BME280_temperature;BME280_humidity;BME280_pressure;Samples;Min_cycle;Max_cycle;Signal;HPM_P1;HPM_P2
2022/12/31 00:01:15;;;;;;;1.15;0.30;;;12.80;79.70;;;;;;5014199;28;20116;-76
2022/12/31 00:03:41;;;;;;;0.10;0.10;;;12.90;79.40;;;;;;5013868;28;20060;-76
2022/12/31 00:06:18;;;;;;;0.45;0.20;;;12.90;79.30;;;;;;5014062;28;20037;-76
2022/12/31 00:08:44;;;;;;;0.32;0.20;;;12.90;78.70;;;;;;5014009;28;20356;-77
2022/12/31 00:11:11;;;;;;;0.30;0.22;;;13.00;78.40;;;;;;5013667;28;20053;-76
2022/12/31 00:13:37;;;;;;;0.47;0.30;;;13.10;78.30;;;;;;5013943;28;20022;-76
2022/12/31 00:16:11;;;;;;;1.08;0.40;;;13.20;77.00;;;;;;5013985;28;20025;-76
2022/12/31 00:18:37;;;;;;;0.85;0.30;;;13.20;77.20;;;;;;5013928;28;20051;-76
2022/12/31 00:21:07;;;;;;;0.35;0.30;;;13.20;77.70;;;;;;5013642;28;20545;-77
2022/12/31 00:23:33;;;;;;;0.50;0.28;;;13.20;78.10;;;;;;5013765;28;20026;-76
2022/12/31 00:26:07;;;;;;;0.20;0.20;;;13.20;77.60;;;;;;5013753;28;20022;-76
2022/12/31 00:28:34;;;;;;;1.05;0.32;;;13.20;78.10;;;;;;5013676;28;20101;-76
2022/12/31 00:31:19;;;;;;;0.35;0.35;;;13.20;78.00;;;;;;5013356;28;20028;-76
2022/12/31 00:33:45;;;;;;;2.05;0.45;;;13.20;78.10;;;;;;5013575;28;20483;-76
2022/12/31 00:36:16;;;;;;;0.32;0.20;;;13.20;77.80;;;;;;5012299;28;20026;-78
2022/12/31 00:38:44;;;;;;;1.42;0.25;;;13.10;77.80;;;;;;5013520;28;20057;-76
2022/12/31 00:41:10;;;;;;;0.13;0.10;;;13.20;77.70;;;;;;5013541;28;20117;-77
2022/12/31 00:43:36;;;;;;;0.82;0.35;;;13.10;78.10;;;;;;5013610;28;20041;-80
2022/12/31 00:46:03;;;;;;;1.05;0.30;;;13.20;77.70;;;;;;5013778;28;20026;-79
2022/12/31 00:48:29;;;;;;;0.50;0.20;;;13.20;77.20;;;;;;5013661;28;20446;-80
2022/12/31 00:50:55;;;;;;;0.13;0.10;;;13.20;76.80;;;;;;5013515;28;20022;-78
2022/12/31 00:53:22;;;;;;;1.77;0.65;;;13.30;76.50;;;;;;5013376;28;20025;-77
2022/12/31 00:55:47;;;;;;;0.70;0.40;;;13.30;76.10;;;;;;5013440;28;20386;-80
2022/12/31 00:58:13;;;;;;;0.77;0.20;;;13.30;76.30;;;;;;5013269;28;20088;-79
2022/12/31 01:00:40;;;;;;;1.45;0.40;;;13.40;76.00;;;;;;5012128;28;20502;-79
2022/12/31 01:03:05;;;;;;;1.10;0.40;;;13.30;76.70;;;;;;5013017;28;20037;-79
2022/12/31 01:05:33;;;;;;;2.05;0.35;;;13.30;76.90;;;;;;5013078;28;20022;-79
2022/12/31 01:07:59;;;;;;;1.70;0.68;;;13.20;76.90;;;;;;5016149;28;20033;-80
2022/12/31 01:13:09;;;;;;;1.27;0.40;;;13.20;78.20;;;;;;5017365;28;20033;-79
2022/12/31 01:15:36;;;;;;;0.22;0.17;;;13.10;77.50;;;;;;5017320;28;20034;-78
2022/12/31 01:18:03;;;;;;;0.70;0.20;;;13.20;76.60;;;;;;5016834;28;20026;-80
2022/12/31 01:20:29;;;;;;;0.20;0.20;;;13.20;76.70;;;;;;5017042;28;20076;-76
2022/12/31 01:22:55;;;;;;;0.30;0.20;;;13.20;76.60;;;;;;5016695;28;20478;-76
2022/12/31 01:25:21;;;;;;;1.85;0.35;;;13.20;76.60;;;;;;5016917;28;20026;-76
2022/12/31 01:27:46;;;;;;;2.13;0.43;;;13.10;76.90;;;;;;5016858;28;20026;-77
2022/12/31 01:30:12;;;;;;;0.28;0.13;;;13.10;76.70;;;;;;5018430;28;20095;-77
2022/12/31 01:32:37;;;;;;;0.85;0.30;;;13.10;76.40;;;;;;5029501;28;20064;-77
2022/12/31 01:35:03;;;;;;;1.48;0.35;;;13.20;74.50;;;;;;5040953;28;20057;-77
2022/12/31 01:37:29;;;;;;;1.92;0.17;;;13.40;73.30;;;;;;5040556;28;20030;-77
2022/12/31 01:39:55;;;;;;;1.05;0.30;;;13.50;73.80;;;;;;5036583;28;20152;-76
2022/12/31 01:42:20;;;;;;;1.05;0.40;;;13.50;74.60;;;;;;5016613;28;20054;-77
2022/12/31 01:44:52;;;;;;;0.40;0.30;;;13.50;74.40;;;;;;5016680;28;20049;-77
2022/12/31 01:47:40;;;;;;;0.50;0.20;;;13.40;73.70;;;;;;5016383;28;20034;-77
2022/12/31 01:50:12;;;;;;;0.75;0.20;;;13.50;72.80;;;;;;5016442;28;20054;-77
2022/12/31 01:52:43;;;;;;;1.75;0.20;;;13.60;72.10;;;;;;5017197;28;20137;-78
2022/12/31 01:55:32;;;;;;;1.42;0.20;;;13.70;72.50;;;;;;5038784;28;20033;-76
2022/12/31 01:58:08;;;;;;;1.40;0.40;;;13.70;72.20;;;;;;5016664;28;20030;-77
2022/12/31 02:00:34;;;;;;;1.65;0.35;;;13.80;71.50;;;;;;5017520;28;20032;-78
2022/12/31 02:03:01;;;;;;;0.85;0.30;;;13.80;72.00;;;;;;5017193;28;20042;-78
2022/12/31 02:05:36;;;;;;;0.50;0.25;;;13.80;72.80;;;;;;5016603;28;20021;-77
2022/12/31 02:08:03;;;;;;;1.35;0.57;;;13.70;73.00;;;;;;5020261;28;20081;-76
2022/12/31 02:10:28;;;;;;;0.28;0.15;;;13.70;72.90;;;;;;5028537;28;20014;-77
2022/12/31 02:12:54;;;;;;;1.00;0.60;;;13.80;72.60;;;;;;5016312;28;20101;-77
2022/12/31 02:15:27;;;;;;;1.92;0.45;;;13.80;72.80;;;;;;5016307;28;20109;-77
2022/12/31 02:18:04;;;;;;;2.28;0.40;;;13.90;72.80;;;;;;5015509;28;20378;-77
2022/12/31 02:20:46;;;;;;;3.03;0.40;;;13.80;73.30;;;;;;5015910;28;20169;-77
2022/12/31 02:23:39;;;;;;;0.80;0.45;;;13.80;73.80;;;;;;5015986;28;20040;-77
2022/12/31 02:26:31;;;;;;;0.43;0.20;;;13.60;74.60;;;;;;5015811;28;20379;-76
2022/12/31 02:29:36;;;;;;;0.28;0.28;;;13.60;75.00;;;;;;5015347;28;20029;-78
2022/12/31 02:32:10;;;;;;;1.15;0.40;;;13.60;75.50;;;;;;5015662;28;20049;-77
2022/12/31 02:34:49;;;;;;;0.82;0.30;;;13.50;76.00;;;;;;5015619;28;20030;-79
2022/12/31 02:37:16;;;;;;;0.68;0.40;;;13.50;75.90;;;;;;5015503;28;20018;-79
2022/12/31 02:39:43;;;;;;;0.38;0.38;;;13.60;75.80;;;;;;5015577;28;20022;-77
2022/12/31 02:42:10;;;;;;;0.98;0.22;;;13.50;76.10;;;;;;5014086;28;20056;-76
2022/12/31 02:44:38;;;;;;;0.77;0.38;;;13.50;76.10;;;;;;5015272;28;20426;-77
2022/12/31 02:47:27;;;;;;;0.32;0.30;;;13.40;76.50;;;;;;5015313;28;20026;-78
2022/12/31 02:50:24;;;;;;;2.15;0.40;;;13.40;76.50;;;;;;5015381;28;20076;-79
2022/12/31 02:53:24;;;;;;;1.45;0.40;;;13.60;75.80;;;;;;5015366;28;20080;-78
2022/12/31 02:56:08;;;;;;;0.50;0.30;;;13.70;75.50;;;;;;5015263;28;20022;-78
2022/12/31 03:02:13;;;;;;;1.63;0.30;;;13.80;75.10;;;;;;5014812;28;20041;-77
2022/12/31 03:04:41;;;;;;;2.78;0.30;;;13.80;75.30;;;;;;5015090;28;20109;-77
2022/12/31 03:07:09;;;;;;;1.13;0.30;;;13.90;75.60;;;;;;5015123;28;20025;-77
2022/12/31 03:09:36;;;;;;;1.23;0.30;;;13.80;76.00;;;;;;5015371;28;20022;-76
2022/12/31 03:14:47;;;;;;;1.02;0.43;;;13.80;76.10;;;;;;5015421;28;20033;-80
2022/12/31 03:17:13;;;;;;;0.98;0.32;;;13.80;76.50;;;;;;5015127;28;20029;-77
2022/12/31 03:22:28;;;;;;;0.57;0.35;;;13.80;76.90;;;;;;5014967;28;20386;-79
2022/12/31 03:27:43;;;;;;;2.03;0.20;;;13.90;76.80;;;;;;5014935;28;20049;-79
2022/12/31 03:30:10;;;;;;;0.75;0.20;;;14.00;76.90;;;;;;5013708;28;20022;-77
2022/12/31 03:32:36;;;;;;;0.52;0.10;;;13.90;76.90;;;;;;5013396;28;20033;-77
2022/12/31 03:35:01;;;;;;;0.50;0.20;;;13.80;77.40;;;;;;5014569;28;20030;-76
2022/12/31 03:37:27;;;;;;;0.60;0.30;;;13.80;77.60;;;;;;5014796;28;20484;-79
2022/12/31 03:39:52;;;;;;;1.30;0.10;;;13.80;78.80;;;;;;5014565;28;20527;-81
2022/12/31 03:42:18;;;;;;;6.35;0.65;;;13.60;80.00;;;;;;5014432;28;20057;-77
2022/12/31 03:44:43;;;;;;;0.50;0.20;;;13.50;81.20;;;;;;5014500;28;20026;-74
2022/12/31 03:47:09;;;;;;;0.75;0.40;;;13.40;82.60;;;;;;5014227;28;20026;-79
2022/12/31 03:49:35;;;;;;;0.30;0.20;;;13.30;83.70;;;;;;5014426;28;20033;-76
2022/12/31 03:52:01;;;;;;;1.13;0.22;;;13.20;84.00;;;;;;5014176;28;20026;-76
2022/12/31 03:54:27;;;;;;;0.68;0.35;;;13.20;84.20;;;;;;5014254;28;20463;-78
2022/12/31 03:56:53;;;;;;;1.50;0.40;;;13.10;84.40;;;;;;5014196;28;20076;-76
2022/12/31 03:59:18;;;;;;;0.68;0.13;;;13.10;85.40;;;;;;5014367;28;20481;-79
2022/12/31 04:01:44;;;;;;;0.90;0.20;;;13.00;85.70;;;;;;5014562;28;20061;-77
2022/12/31 04:04:09;;;;;;;0.90;0.20;;;12.90;85.90;;;;;;5014142;28;20415;-76
2022/12/31 04:06:35;;;;;;;1.45;0.20;;;12.90;85.50;;;;;;5013929;28;20030;-78
2022/12/31 04:09:00;;;;;;;0.90;0.35;;;13.00;85.30;;;;;;5015239;28;20018;-78
2022/12/31 04:11:26;;;;;;;0.15;0.15;;;13.00;84.90;;;;;;5038335;28;20030;-77
2022/12/31 04:13:51;;;;;;;0.93;0.22;;;13.10;84.30;;;;;;5018917;28;20033;-76
2022/12/31 04:16:17;;;;;;;0.43;0.10;;;13.20;83.60;;;;;;5013989;28;20104;-76
2022/12/31 04:18:42;;;;;;;1.08;0.45;;;13.20;83.80;;;;;;5013917;28;20041;-75
2022/12/31 04:21:08;;;;;;;0.28;0.17;;;13.20;83.50;;;;;;5013936;28;20156;-76
2022/12/31 04:23:33;;;;;;;0.28;0.17;;;13.20;83.60;;;;;;5014370;28;20648;-77
2022/12/31 04:25:59;;;;;;;1.30;0.30;;;13.20;84.10;;;;;;5014163;28;20034;-76
2022/12/31 04:28:24;;;;;;;0.55;0.32;;;13.20;84.10;;;;;;5021892;28;20029;-76
2022/12/31 04:30:50;;;;;;;0.93;0.20;;;13.10;83.60;;;;;;5014815;28;20069;-78
2022/12/31 04:33:16;;;;;;;0.10;0.10;;;13.20;83.40;;;;;;5014853;28;20033;-77
2022/12/31 04:35:42;;;;;;;0.70;0.20;;;13.20;82.90;;;;;;5013887;28;20026;-77
2022/12/31 04:38:08;;;;;;;0.73;0.10;;;13.20;83.60;;;;;;5013825;28;20023;-76
2022/12/31 04:40:33;;;;;;;0.65;0.20;;;13.30;82.40;;;;;;5012946;28;20411;-75
2022/12/31 04:42:59;;;;;;;0.20;0.10;;;13.30;82.20;;;;;;5012674;28;20087;-75
2022/12/31 04:45:24;;;;;;;0.40;0.13;;;13.30;82.00;;;;;;5013534;28;20030;-77
2022/12/31 04:47:50;;;;;;;0.10;0.10;;;13.40;81.20;;;;;;5013310;28;20459;-75
2022/12/31 04:50:16;;;;;;;0.20;0.20;;;13.50;81.10;;;;;;5013558;28;20073;-75
2022/12/31 04:52:41;;;;;;;1.33;0.52;;;13.50;81.10;;;;;;5013374;28;20030;-76
2022/12/31 04:55:07;;;;;;;0.38;0.28;;;13.50;80.80;;;;;;5013252;28;20108;-76
2022/12/31 04:57:32;;;;;;;1.30;0.15;;;13.60;79.70;;;;;;5012045;28;20033;-75
2022/12/31 04:59:58;;;;;;;0.25;0.25;;;13.70;79.80;;;;;;5013072;28;20466;-75
2022/12/31 05:02:23;;;;;;;0.22;0.10;;;13.70;79.50;;;;;;5013196;28;20038;-76
2022/12/31 05:04:49;;;;;;;1.20;0.20;;;13.70;78.80;;;;;;5013237;28;20022;-75
2022/12/31 05:07:15;;;;;;;0.20;0.20;;;13.70;79.00;;;;;;5013212;28;20033;-76
2022/12/31 05:09:40;;;;;;;0.28;0.13;;;13.70;78.60;;;;;;5013130;28;20026;-76
2022/12/31 05:12:06;;;;;;;0.63;0.13;;;13.80;78.20;;;;;;5013265;28;20174;-75
2022/12/31 05:14:31;;;;;;;0.13;0.10;;;13.80;78.00;;;;;;5013251;28;20022;-76
2022/12/31 05:16:58;;;;;;;0.40;0.10;;;13.80;77.60;;;;;;5013060;28;20053;-76
2022/12/31 05:19:23;;;;;;;0.70;0.30;;;13.90;77.50;;;;;;5013022;28;20045;-75
2022/12/31 05:22:27;;;;;;;0.30;0.10;;;13.90;77.30;;;;;;5013203;28;20479;-76
2022/12/31 05:24:34;;;;;;;0.90;0.22;;;14.00;76.80;;;;;;5013069;28;20022;-75
2022/12/31 05:27:00;;;;;;;0.20;0.20;;;13.90;76.80;;;;;;5013177;28;20216;-81
2022/12/31 05:29:26;;;;;;;0.73;0.20;;;13.90;76.60;;;;;;5013178;28;20022;-78
2022/12/31 05:31:52;;;;;;;0.63;0.35;;;14.10;75.90;;;;;;5011744;28;20429;-76
2022/12/31 05:34:17;;;;;;;0.73;0.20;;;14.10;75.60;;;;;;5012805;28;20494;-75
2022/12/31 05:36:43;;;;;;;0.50;0.28;;;14.10;75.20;;;;;;5012858;28;20026;-75
2022/12/31 05:39:08;;;;;;;0.57;0.30;;;14.20;74.90;;;;;;5012627;28;20029;-75
2022/12/31 05:41:34;;;;;;;0.20;0.20;;;14.20;75.00;;;;;;5012789;28;20133;-76
2022/12/31 05:43:59;;;;;;;0.52;0.30;;;14.20;74.70;;;;;;5012896;28;20041;-76
2022/12/31 05:46:25;;;;;;;0.52;0.35;;;14.20;74.70;;;;;;5012901;28;20022;-76
2022/12/31 05:48:50;;;;;;;0.43;0.17;;;14.20;74.40;;;;;;5012950;28;20449;-79
2022/12/31 05:51:16;;;;;;;0.13;0.10;;;14.20;74.40;;;;;;5011765;28;20028;-76
2022/12/31 05:53:41;;;;;;;0.17;0.10;;;14.20;74.40;;;;;;5014966;28;20101;-77
2022/12/31 05:56:07;;;;;;;0.95;0.17;;;14.20;74.00;;;;;;5016298;28;20052;-77
2022/12/31 05:58:32;;;;;;;0.43;0.20;;;14.20;73.90;;;;;;5016581;28;20029;-76
2022/12/31 06:00:58;;;;;;;0.50;0.20;;;14.30;73.90;;;;;;5016223;28;20018;-76
2022/12/31 06:03:24;;;;;;;0.40;0.28;;;14.30;74.70;;;;;;5016165;28;20406;-76
2022/12/31 06:05:49;;;;;;;2.05;0.32;;;14.10;75.80;;;;;;5016259;28;20526;-77
2022/12/31 06:08:15;;;;;;;1.55;0.30;;;14.00;76.70;;;;;;5016342;28;20026;-82
2022/12/31 06:10:40;;;;;;;0.45;0.30;;;13.70;77.90;;;;;;5016216;28;20030;-76
2022/12/31 06:13:07;;;;;;;0.80;0.40;;;13.50;78.90;;;;;;5015910;28;20030;-76
2022/12/31 06:15:35;;;;;;;1.20;0.40;;;13.30;79.60;;;;;;5016266;28;20532;-77
2022/12/31 06:18:00;;;;;;;0.77;0.63;;;13.20;80.10;;;;;;5016081;28;20468;-78
2022/12/31 06:20:26;;;;;;;1.80;0.47;;;13.00;81.20;;;;;;5015878;28;20030;-77
2022/12/31 06:22:51;;;;;;;0.32;0.30;;;12.90;81.80;;;;;;5015674;28;20398;-76
2022/12/31 06:25:17;;;;;;;0.30;0.30;;;12.90;81.60;;;;;;5015783;28;20359;-77
2022/12/31 06:27:42;;;;;;;1.00;0.77;;;12.90;81.90;;;;;;5033754;28;20082;-76
2022/12/31 06:30:09;;;;;;;1.75;0.70;;;12.80;82.30;;;;;;5018599;28;20034;-76
2022/12/31 06:32:34;;;;;;;0.60;0.60;;;12.80;81.90;;;;;;5016068;28;20029;-78
2022/12/31 06:35:00;;;;;;;1.05;0.60;;;12.80;82.30;;;;;;5015882;28;20096;-78
2022/12/31 06:37:26;;;;;;;1.08;0.50;;;12.80;82.20;;;;;;5016045;28;20525;-78
2022/12/31 06:39:51;;;;;;;1.52;0.60;;;12.80;82.40;;;;;;5015699;28;20022;-78
2022/12/31 06:42:17;;;;;;;2.35;0.90;;;12.70;82.70;;;;;;5014852;28;20046;-77
2022/12/31 06:44:42;;;;;;;1.13;0.70;;;12.70;82.90;;;;;;5015029;28;20133;-77
2022/12/31 06:47:08;;;;;;;0.45;0.45;;;12.60;82.50;;;;;;5014254;28;20080;-77
2022/12/31 06:49:33;;;;;;;1.35;0.60;;;12.60;82.50;;;;;;5014563;28;20212;-76
2022/12/31 06:51:59;;;;;;;0.30;0.30;;;12.60;82.70;;;;;;5014393;28;20105;-76
2022/12/31 06:54:24;;;;;;;0.30;0.30;;;12.50;82.90;;;;;;5014458;28;20036;-81
2022/12/31 06:56:50;;;;;;;0.80;0.50;;;12.40;83.10;;;;;;5014224;28;20029;-79
2022/12/31 06:59:27;;;;;;;2.20;0.52;;;12.40;83.10;;;;;;5014322;28;20022;-78
2022/12/31 07:02:02;;;;;;;2.90;0.60;;;12.40;83.30;;;;;;5014538;28;20018;-78
2022/12/31 07:04:51;;;;;;;0.93;0.40;;;12.40;83.50;;;;;;5012931;28;20030;-80
2022/12/31 07:07:36;;;;;;;0.68;0.50;;;12.30;83.50;;;;;;5014099;28;20057;-76
2022/12/31 07:10:25;;;;;;;0.77;0.60;;;12.30;83.40;;;;;;5014389;28;20018;-77
2022/12/31 07:13:09;;;;;;;0.63;0.60;;;12.30;84.20;;;;;;5012769;28;20032;-76
2022/12/31 07:15:49;;;;;;;0.77;0.60;;;12.30;83.40;;;;;;5014065;28;20491;-75
2022/12/31 07:18:48;;;;;;;2.55;0.60;;;12.20;83.20;;;;;;5012706;28;20032;-79
2022/12/31 07:21:17;;;;;;;0.30;0.30;;;12.30;83.00;;;;;;5013756;28;20022;-76
2022/12/31 07:23:43;;;;;;;0.30;0.30;;;12.30;83.20;;;;;;5013795;28;20054;-76
2022/12/31 07:26:43;;;;;;;4.28;0.35;;;12.20;83.00;;;;;;5013946;28;20022;-78
2022/12/31 07:29:24;;;;;;;1.05;0.60;;;12.20;82.80;;;;;;4992676;28;20414;-76
2022/12/31 07:32:01;;;;;;;1.85;0.50;;;12.30;82.70;;;;;;5013799;28;20026;-76
2022/12/31 07:34:44;;;;;;;1.08;0.50;;;12.40;82.30;;;;;;5013378;28;20029;-76
2022/12/31 07:37:24;;;;;;;0.50;0.50;;;12.40;82.20;;;;;;5013519;28;20108;-79
2022/12/31 07:43:03;;;;;;;1.52;0.47;;;12.40;82.80;;;;;;5078834;27;20139;-77
2022/12/31 07:45:49;;;;;;;1.10;0.60;;;12.40;81.90;;;;;;5046625;28;20122;-76
2022/12/31 07:48:24;;;;;;;1.73;0.40;;;12.40;81.90;;;;;;5045174;28;20031;-76
2022/12/31 07:50:53;;;;;;;0.10;0.10;;;12.50;80.80;;;;;;5046024;28;20068;-76
2022/12/31 07:53:19;;;;;;;0.60;0.50;;;12.60;80.50;;;;;;5046548;27;20120;-79
2022/12/31 07:55:44;;;;;;;0.30;0.30;;;12.80;79.00;;;;;;5045207;28;20108;-76
2022/12/31 07:58:40;;;;;;;1.33;0.38;;;13.00;78.30;;;;;;5046275;27;20454;-76
2022/12/31 08:01:11;;;;;;;0.93;0.68;;;13.30;76.30;;;;;;5041726;27;20587;-73
2022/12/31 08:04:16;;;;;;;1.38;0.68;;;13.50;76.00;;;;;;5046377;28;20025;-73
2022/12/31 08:07:09;;;;;;;1.33;0.70;;;13.40;76.70;;;;;;5046445;28;20059;-78
2022/12/31 08:09:52;;;;;;;1.75;0.60;;;13.30;76.50;;;;;;5045821;28;20022;-76
2022/12/31 08:12:20;;;;;;;1.52;0.65;;;13.30;77.20;;;;;;5046067;27;20021;-75
2022/12/31 08:14:46;;;;;;;1.95;0.85;;;13.10;77.80;;;;;;5046172;27;20104;-74
2022/12/31 08:17:14;;;;;;;0.45;0.40;;;13.00;78.50;;;;;;5046218;27;20041;-77
2022/12/31 08:19:40;;;;;;;0.77;0.30;;;13.00;78.50;;;;;;5046406;28;20063;-79
2022/12/31 08:22:21;;;;;;;9.43;1.13;;;13.00;78.00;;;;;;5045637;28;20407;-74
2022/12/31 08:25:11;;;;;;;1.27;0.60;;;13.20;78.60;;;;;;5045607;28;20389;-73
2022/12/31 08:28:04;;;;;;;2.53;0.40;;;13.50;75.80;;;;;;5045912;27;20450;-74
2022/12/31 08:30:56;;;;;;;1.05;0.40;;;13.80;75.00;;;;;;5045934;27;20030;-74
2022/12/31 08:33:31;;;;;;;3.10;0.30;;;13.90;75.20;;;;;;5030038;28;20045;-75
2022/12/31 08:36:31;;;;;;;0.95;0.50;;;14.00;74.00;;;;;;5045636;28;20025;-75
2022/12/31 08:39:01;;;;;;;1.85;0.30;;;14.20;73.40;;;;;;5045463;28;20022;-75
2022/12/31 08:41:46;;;;;;;0.47;0.40;;;14.40;72.30;;;;;;5048009;28;20045;-75
2022/12/31 08:44:35;;;;;;;0.25;0.20;;;14.70;71.10;;;;;;5043893;28;20025;-76
2022/12/31 08:47:03;;;;;;;1.52;0.35;;;14.80;69.50;;;;;;5045248;28;20033;-77
2022/12/31 08:49:31;;;;;;;1.55;0.30;;;15.00;69.30;;;;;;5045751;28;20036;-77
2022/12/31 08:51:58;;;;;;;1.13;0.35;;;15.10;68.90;;;;;;5044042;28;20546;-78
2022/12/31 08:54:24;;;;;;;1.02;0.22;;;15.30;67.10;;;;;;5032498;28;20021;-77
2022/12/31 08:57:23;;;;;;;0.40;0.20;;;15.50;65.30;;;;;;5032630;28;20056;-81
2022/12/31 08:59:56;;;;;;;0.63;0.20;;;15.80;64.10;;;;;;5032646;28;20074;-77
2022/12/31 09:02:41;;;;;;;2.42;0.30;;;16.00;63.80;;;;;;5032963;28;20077;-78
2022/12/31 09:06:03;;;;;;;0.47;0.30;;;16.10;62.80;;;;;;5031136;28;20036;-77
2022/12/31 09:08:39;;;;;;;1.27;0.20;;;16.20;61.60;;;;;;4990696;28;20030;-79
2022/12/31 09:11:14;;;;;;;0.50;0.38;;;16.10;62.30;;;;;;4990503;28;20461;-77
2022/12/31 09:14:00;;;;;;;0.45;0.25;;;16.20;61.70;;;;;;5020666;28;20113;-78
2022/12/31 09:16:40;;;;;;;;;;;16.20;61.70;;;;;;5031309;28;20028;-78
2022/12/31 09:19:09;;;;;;;0.40;0.30;;;16.10;61.40;;;;;;5031088;28;19973;-79
2022/12/31 09:21:36;;;;;;;0.20;0.20;;;16.10;61.40;;;;;;5031038;28;20108;-77
2022/12/31 09:24:03;;;;;;;0.15;0.15;;;16.10;62.50;;;;;;5030413;28;20108;-80
2022/12/31 09:26:51;;;;;;;0.52;0.50;;;16.00;62.50;;;;;;5030579;28;20074;-76
2022/12/31 09:29:47;;;;;;;1.20;0.52;;;16.00;62.20;;;;;;5032360;28;20024;-77
2022/12/31 09:32:36;;;;;;;0.55;0.30;;;15.90;64.40;;;;;;5031866;28;20070;-77
2022/12/31 09:35:11;;;;;;;0.90;0.40;;;15.80;65.10;;;;;;5031938;28;20393;-77
2022/12/31 09:37:48;;;;;;;2.22;0.50;;;15.70;66.20;;;;;;5031400;28;20151;-77
2022/12/31 09:40:52;;;;;;;1.42;0.68;;;15.80;65.50;;;;;;5025672;27;20113;-79
2022/12/31 09:43:21;;;;;;;1.27;0.55;;;16.20;64.80;;;;;;5046650;28;20120;-78
2022/12/31 09:46:10;;;;;;;1.00;0.30;;;16.50;64.10;;;;;;5031678;28;20045;-80
2022/12/31 09:49:17;;;;;;;1.75;0.60;;;16.70;63.50;;;;;;5031486;28;20524;-78
2022/12/31 09:52:20;;;;;;;0.73;0.50;;;16.70;63.40;;;;;;5046887;28;20059;-78
2022/12/31 09:54:54;;;;;;;0.77;0.55;;;16.70;62.10;;;;;;5030612;28;20048;-77
2022/12/31 09:57:59;;;;;;;0.40;0.40;;;16.80;62.70;;;;;;5031446;28;20386;-79
2022/12/31 10:00:37;;;;;;;0.45;0.30;;;16.90;62.30;;;;;;5030123;28;20033;-75
2022/12/31 10:03:25;;;;;;;1.20;0.45;;;17.10;60.10;;;;;;5029867;28;20026;-76
2022/12/31 10:06:12;;;;;;;0.40;0.40;;;17.20;59.40;;;;;;5029765;28;20039;-76
2022/12/31 10:09:06;;;;;;;1.20;0.63;;;17.30;58.20;;;;;;5030173;28;20108;-76
2022/12/31 10:11:58;;;;;;;1.98;0.60;;;17.50;57.40;;;;;;5028027;28;20029;-78
2022/12/31 10:14:55;;;;;;;0.60;0.20;;;17.70;56.60;;;;;;5027656;28;20394;-76
2022/12/31 10:17:57;;;;;;;0.35;0.35;;;17.90;53.60;;;;;;5030254;28;20029;-77
2022/12/31 10:21:01;;;;;;;1.73;0.47;;;18.00;55.40;;;;;;5030679;28;20021;-77
2022/12/31 10:24:03;;;;;;;0.40;0.40;;;18.40;54.60;;;;;;5031074;28;20030;-78
2022/12/31 10:27:10;;;;;;;2.40;0.38;;;18.70;52.40;;;;;;5029178;28;20132;-79
2022/12/31 10:29:47;;;;;;;0.55;0.32;;;18.80;50.50;;;;;;5030742;28;20025;-77
2022/12/31 10:32:17;;;;;;;2.15;0.52;;;18.60;50.60;;;;;;5028959;28;20089;-78
2022/12/31 10:35:13;;;;;;;0.75;0.20;;;18.60;49.70;;;;;;5030343;28;20021;-77
2022/12/31 10:37:55;;;;;;;0.20;0.20;;;18.80;50.70;;;;;;5026441;28;20113;-77
2022/12/31 10:40:29;;;;;;;1.33;0.40;;;18.90;49.70;;;;;;5023328;27;20060;-77
2022/12/31 10:43:25;;;;;;;0.50;0.40;;;19.20;49.30;;;;;;5044642;28;20029;-77
2022/12/31 10:46:09;;;;;;;;;;;19.70;49.80;;;;;;5030733;28;20412;-82
2022/12/31 10:49:02;;;;;;;0.40;0.30;;;20.00;48.10;;;;;;5030355;28;19905;-78
2022/12/31 10:51:28;;;;;;;0.50;0.30;;;20.40;47.40;;;;;;5030528;28;20021;-85
2022/12/31 10:54:12;;;;;;;0.98;0.28;;;20.50;45.60;;;;;;5029219;28;20064;-81
2022/12/31 10:57:05;;;;;;;0.30;0.22;;;20.50;45.90;;;;;;5029852;28;20053;-79
2022/12/31 11:00:00;;;;;;;0.30;0.30;;;20.60;45.00;;;;;;5030538;28;20040;-79
2022/12/31 11:02:41;;;;;;;0.70;0.30;;;20.90;44.10;;;;;;5029897;28;20041;-77
2022/12/31 11:05:22;;;;;;;0.30;0.20;;;21.10;43.20;;;;;;5030552;28;20086;-79
2022/12/31 11:08:15;;;;;;;0.75;0.25;;;21.30;42.30;;;;;;5028780;28;20049;-80
2022/12/31 11:10:55;;;;;;;1.55;0.30;;;21.50;42.00;;;;;;5027926;28;20032;-78
2022/12/31 11:13:53;;;;;;;1.67;0.60;;;22.10;42.30;;;;;;5030191;28;20025;-79
2022/12/31 11:16:48;;;;;;;1.55;0.22;;;22.70;39.30;;;;;;5030271;28;20021;-78
2022/12/31 11:19:35;;;;;;;0.38;0.35;;;22.90;38.50;;;;;;5025648;28;20076;-80
2022/12/31 11:22:20;;;;;;;1.25;0.45;;;23.40;38.60;;;;;;5030526;28;20098;-79
2022/12/31 11:25:17;;;;;;;0.30;0.30;;;23.80;37.70;;;;;;5030266;28;20045;-78
2022/12/31 11:27:51;;;;;;;0.47;0.40;;;24.00;35.70;;;;;;5030092;28;20473;-79
2022/12/31 11:30:32;;;;;;;0.97;0.30;;;24.00;36.00;;;;;;5045174;27;20167;-82
2022/12/31 11:33:34;;;;;;;0.55;0.50;;;24.10;36.80;;;;;;5030409;28;20022;-79
2022/12/31 11:36:18;;;;;;;1.40;0.63;;;24.30;36.30;;;;;;5029763;28;20182;-79
2022/12/31 11:39:09;;;;;;;0.30;0.30;;;24.80;34.20;;;;;;5029884;28;20105;-79
2022/12/31 11:41:41;;;;;;;1.75;0.10;;;24.80;34.00;;;;;;5030397;28;20058;-78
2022/12/31 11:44:51;;;;;;;1.17;0.28;;;25.00;33.60;;;;;;5030275;28;20067;-81
2022/12/31 11:47:46;;;;;;;2.15;0.80;;;24.80;33.50;;;;;;5053086;28;20489;-79
2022/12/31 11:50:29;;;;;;;0.38;0.20;;;24.50;34.20;;;;;;5029478;28;20469;-78
2022/12/31 11:53:22;;;;;;;1.60;0.20;;;24.00;35.00;;;;;;5030009;28;20017;-76
2022/12/31 11:56:10;;;;;;;0.20;0.20;;;23.70;36.30;;;;;;5029971;28;20022;-77
2022/12/31 11:58:35;;;;;;;0.93;0.20;;;23.70;36.00;;;;;;5029657;28;20500;-77
2022/12/31 12:01:16;;;;;;;0.80;0.70;;;23.80;35.60;;;;;;5029797;28;20041;-77
2022/12/31 12:03:42;;;;;;;1.35;0.80;;;24.20;36.50;;;;;;5029693;28;20100;-77
2022/12/31 12:06:22;;;;;;;1.38;0.80;;;24.50;36.80;;;;;;5027500;28;20063;-76
2022/12/31 12:08:49;;;;;;;1.73;0.75;;;24.50;37.00;;;;;;5027067;28;20033;-81
2022/12/31 12:11:22;;;;;;;2.50;0.75;;;24.10;37.40;;;;;;5028890;28;20053;-78
2022/12/31 12:13:48;;;;;;;1.17;0.60;;;24.20;37.50;;;;;;5029768;28;20022;-79
2022/12/31 12:16:14;;;;;;;2.25;0.90;;;23.80;37.80;;;;;;5029588;28;20100;-78
2022/12/31 12:18:47;;;;;;;0.77;0.57;;;23.60;38.40;;;;;;5029709;28;20037;-79
2022/12/31 12:21:24;;;;;;;0.93;0.60;;;23.70;38.50;;;;;;5029927;28;20425;-79
2022/12/31 12:23:56;;;;;;;0.85;0.50;;;23.70;38.40;;;;;;5044911;28;20022;-80
2022/12/31 12:26:36;;;;;;;0.60;0.50;;;23.70;38.20;;;;;;5029250;28;20029;-79
2022/12/31 12:29:16;;;;;;;0.40;0.40;;;23.70;38.50;;;;;;5032459;28;20108;-79
2022/12/31 12:31:52;;;;;;;0.82;0.50;;;23.40;38.80;;;;;;5033177;28;20026;-80
2022/12/31 12:34:26;;;;;;;0.95;0.50;;;23.00;39.50;;;;;;5033061;28;20078;-79
2022/12/31 12:36:51;;;;;;;1.67;0.63;;;22.20;41.50;;;;;;5032901;28;20022;-79
2022/12/31 12:39:25;;;;;;;1.98;0.60;;;21.60;43.40;;;;;;5033207;28;20074;-78
2022/12/31 12:42:09;;;;;;;0.50;0.40;;;21.10;45.10;;;;;;5048155;28;20054;-79
2022/12/31 12:44:35;;;;;;;0.60;0.30;;;20.70;46.10;;;;;;5033070;28;20025;-77
2022/12/31 12:47:03;;;;;;;0.43;0.28;;;20.40;46.20;;;;;;5032892;28;20025;-78
2022/12/31 12:49:38;;;;;;;0.77;0.50;;;20.40;46.40;;;;;;5028798;28;20687;-77
2022/12/31 12:52:25;;;;;;;0.70;0.60;;;20.40;46.80;;;;;;5035363;28;20041;-78
2022/12/31 12:55:12;;;;;;;0.30;0.30;;;20.30;46.50;;;;;;5036210;28;20098;-81
2022/12/31 12:57:48;;;;;;;2.70;0.50;;;20.20;47.10;;;;;;5036146;28;20366;-82
2022/12/31 13:00:46;;;;;;;1.48;0.40;;;20.20;47.40;;;;;;5035325;28;20108;-77
2022/12/31 13:03:15;;;;;;;0.57;0.28;;;19.90;46.00;;;;;;5034311;28;20041;-76
2022/12/31 13:06:05;;;;;;;1.15;0.50;;;19.90;47.60;;;;;;5048886;28;20018;-77
2022/12/31 13:09:08;;;;;;;2.20;1.08;;;19.80;48.50;;;;;;5056429;28;20029;-76
2022/12/31 13:12:12;;;;;;;1.23;0.80;;;19.60;48.90;;;;;;5053332;28;20086;-78
2022/12/31 13:15:20;;;;;;;7.80;3.17;;;19.20;50.00;;;;;;5055193;28;20077;-77
2022/12/31 13:18:06;;;;;;;27.63;19.98;;;19.00;51.20;;;;;;5054013;28;20051;-77
2022/12/31 13:20:37;;;;;;;8.80;6.28;;;18.60;52.10;;;;;;5056366;28;20039;-77
2022/12/31 13:23:31;;;;;;;13.40;8.80;;;18.50;52.90;;;;;;5056819;28;20080;-79
2022/12/31 13:26:11;;;;;;;4.40;3.25;;;18.40;53.30;;;;;;5036077;28;20089;-77
2022/12/31 13:28:41;;;;;;;4.35;1.98;;;18.20;54.30;;;;;;5032513;28;20073;-77
2022/12/31 13:31:13;;;;;;;0.80;0.80;;;18.10;54.70;;;;;;5030850;28;20033;-77
2022/12/31 13:33:43;;;;;;;1.77;0.60;;;18.00;54.90;;;;;;5032306;28;20083;-76
2022/12/31 13:36:15;;;;;;;1.25;0.80;;;17.90;55.50;;;;;;5031675;28;20029;-77
2022/12/31 13:38:54;;;;;;;0.75;0.40;;;17.70;55.90;;;;;;5032180;28;20074;-77
2022/12/31 13:41:40;;;;;;;2.70;0.70;;;17.50;56.40;;;;;;5031844;28;20053;-78
2022/12/31 13:44:09;;;;;;;1.30;0.60;;;17.40;56.90;;;;;;5031916;28;20032;-77
2022/12/31 13:46:50;;;;;;;0.65;0.65;;;17.20;58.00;;;;;;5031768;28;20025;-76